createdAt,value
2018-02-02T00:02:21.871Z,18.83
2018-02-02T00:04:47.638Z,22.77
2018-02-02T00:07:13.738Z,19.43
2018-02-02T00:09:39.486Z,20.02
2018-02-02T00:12:05.351Z,19.70
2018-02-02T00:14:31.402Z,21.00
2018-02-02T00:16:57.415Z,19.90
2018-02-02T00:19:23.185Z,18.83
2018-02-02T00:21:48.976Z,19.23
2018-02-02T00:24:14.735Z,19.40
2018-02-02T00:26:40.512Z,18.70
2018-02-02T00:29:06.266Z,19.97
2018-02-02T00:31:32.033Z,18.17
2018-02-02T00:33:58.086Z,18.60
2018-02-02T00:36:23.891Z,18.40
2018-02-02T00:38:49.954Z,17.30
2018-02-02T00:41:15.731Z,16.98
2018-02-02T00:43:41.896Z,15.17
2018-02-02T00:46:07.659Z,16.20
2018-02-02T00:48:33.445Z,15.80
2018-02-02T00:51:05.288Z,16.00
2018-02-02T00:53:31.058Z,15.65
2018-02-02T00:55:56.812Z,15.37
2018-02-02T00:58:22.682Z,16.97
2018-02-02T01:00:48.449Z,15.40
2018-02-02T01:03:14.211Z,15.07
2018-02-02T01:05:39.979Z,16.30
2018-02-02T01:08:05.756Z,15.93
2018-02-02T01:10:31.519Z,15.90
2018-02-02T01:12:57.295Z,15.80
2018-02-02T01:15:23.050Z,14.03
2018-02-02T01:17:48.823Z,14.50
2018-02-02T01:20:14.586Z,15.80
2018-02-02T01:22:40.362Z,14.23
2018-02-02T01:25:06.122Z,15.50
2018-02-02T01:27:31.878Z,14.50
2018-02-02T01:29:57.651Z,14.87
2018-02-02T01:32:23.420Z,15.77
2018-02-02T01:34:49.195Z,15.83
2018-02-02T01:37:15.586Z,15.97
2018-02-02T01:39:41.351Z,16.90
2018-02-02T01:42:07.117Z,16.70
2018-02-02T01:44:32.911Z,16.33
2018-02-02T01:46:58.668Z,17.63
2018-02-02T01:49:24.447Z,16.40
2018-02-02T01:51:50.215Z,16.73
2018-02-02T01:54:15.985Z,16.20
2018-02-02T01:56:41.799Z,16.53
2018-02-02T01:59:07.574Z,17.70
2018-02-02T02:01:33.358Z,18.03
2018-02-02T02:03:59.143Z,16.33
2018-02-02T02:06:24.896Z,17.17
2018-02-02T02:08:50.666Z,17.57
2018-02-02T02:11:16.435Z,15.33
2018-02-02T02:13:42.213Z,17.27
2018-02-02T02:16:07.995Z,16.73
2018-02-02T02:18:33.756Z,17.40
2018-02-02T02:20:59.532Z,16.47
2018-02-02T02:23:25.299Z,18.03
2018-02-02T02:25:51.070Z,17.10
2018-02-02T02:28:18.406Z,17.87
2018-02-02T02:30:44.247Z,18.55
2018-02-02T02:33:10.019Z,18.80
2018-02-02T02:35:35.792Z,19.17
2018-02-02T02:38:01.534Z,18.43
2018-02-02T02:40:27.302Z,19.07
2018-02-02T02:42:53.058Z,19.00
2018-02-02T02:45:18.836Z,18.73
2018-02-02T02:47:44.588Z,19.80
2018-02-02T02:50:10.355Z,20.60
2018-02-02T02:52:36.141Z,20.20
2018-02-02T02:55:01.903Z,20.87
2018-02-02T02:57:27.682Z,20.97
2018-02-02T02:59:53.506Z,21.47
2018-02-02T03:02:19.295Z,22.17
2018-02-02T03:04:45.047Z,23.30
2018-02-02T03:07:10.823Z,22.70
2018-02-02T03:09:36.586Z,22.87
2018-02-02T03:12:02.362Z,23.13
2018-02-02T03:14:28.114Z,24.43
2018-02-02T03:16:53.873Z,23.93
2018-02-02T03:19:19.644Z,22.20
2018-02-02T03:21:45.422Z,24.77
2018-02-02T03:24:11.169Z,24.50
2018-02-02T03:26:36.950Z,24.67
2018-02-02T03:29:02.711Z,25.27
2018-02-02T03:31:28.490Z,24.47
2018-02-02T03:33:54.262Z,24.97
2018-02-02T03:36:20.046Z,26.30
2018-02-02T03:38:45.804Z,24.67
2018-02-02T03:41:11.576Z,26.27
2018-02-02T03:43:37.330Z,24.97
2018-02-02T03:46:03.091Z,25.00
2018-02-02T03:48:28.872Z,25.83
2018-02-02T03:50:54.650Z,25.10
2018-02-02T03:53:20.421Z,25.47
2018-02-02T03:55:46.183Z,25.90
2018-02-02T03:58:11.946Z,25.33
2018-02-02T04:00:37.735Z,25.13
2018-02-02T04:03:03.507Z,26.27
2018-02-02T04:05:29.274Z,25.17
2018-02-02T04:07:55.060Z,25.17
2018-02-02T04:10:20.815Z,25.13
2018-02-02T04:12:46.600Z,26.07
2018-02-02T04:15:12.351Z,25.77
2018-02-02T04:17:38.127Z,24.93
2018-02-02T04:20:03.901Z,24.30
2018-02-02T04:22:29.666Z,25.23
2018-02-02T04:24:55.430Z,25.87
2018-02-02T04:27:21.232Z,25.53
2018-02-02T04:29:46.998Z,23.93
2018-02-02T04:32:12.761Z,23.13
2018-02-02T04:34:38.547Z,24.17
2018-02-02T04:37:04.310Z,23.73
2018-02-02T04:39:30.090Z,23.40
2018-02-02T04:41:55.848Z,23.17
2018-02-02T04:44:21.619Z,23.03
2018-02-02T04:46:47.365Z,22.80
2018-02-02T04:49:13.142Z,21.63
2018-02-02T04:51:38.900Z,22.57
2018-02-02T04:54:04.672Z,21.57
2018-02-02T04:56:30.435Z,21.73
2018-02-02T04:58:56.221Z,22.10
2018-02-02T05:01:21.976Z,19.80
2018-02-02T05:03:47.755Z,21.87
2018-02-02T05:06:13.658Z,19.30
2018-02-02T05:08:39.424Z,21.90
2018-02-02T05:11:05.179Z,21.57
2018-02-02T05:13:30.939Z,21.37
2018-02-02T05:15:56.699Z,20.90
2018-02-02T05:18:22.495Z,21.20
2018-02-02T05:20:48.207Z,23.23
2018-02-02T05:23:13.959Z,21.37
2018-02-02T05:25:39.710Z,20.17
2018-02-02T05:28:05.459Z,21.50
2018-02-02T05:30:31.222Z,22.23
2018-02-02T05:32:56.970Z,22.47
2018-02-02T05:35:22.738Z,22.73
2018-02-02T05:37:48.500Z,23.47
2018-02-02T05:40:14.246Z,22.50
2018-02-02T05:42:39.989Z,25.20
2018-02-02T05:45:05.743Z,24.33
2018-02-02T05:47:31.506Z,24.43
2018-02-02T05:49:57.246Z,24.37
2018-02-02T05:52:22.997Z,23.93
2018-02-02T05:54:48.766Z,26.13
2018-02-02T05:57:14.512Z,23.90
2018-02-02T05:59:40.283Z,24.83
2018-02-02T06:02:06.061Z,24.63
2018-02-02T06:04:31.803Z,25.63
2018-02-02T06:06:57.556Z,26.53
2018-02-02T06:09:23.310Z,26.07
2018-02-02T06:11:49.088Z,25.97
2018-02-02T06:14:14.830Z,25.13
2018-02-02T06:16:40.594Z,24.90
2018-02-02T06:19:18.723Z,25.83
2018-02-02T06:21:44.474Z,27.23
2018-02-02T06:24:10.214Z,26.07
2018-02-02T06:26:35.975Z,27.70
2018-02-02T06:29:01.737Z,25.50
2018-02-02T06:31:27.502Z,26.23
2018-02-02T06:33:53.268Z,26.13
2018-02-02T06:36:19.023Z,25.70
2018-02-02T06:38:44.775Z,26.50
2018-02-02T06:41:10.544Z,25.27
2018-02-02T06:43:36.291Z,27.53
2018-02-02T06:46:02.059Z,27.57
2018-02-02T06:48:27.801Z,26.43
2018-02-02T06:50:53.542Z,27.97
2018-02-02T06:53:19.290Z,26.77
2018-02-02T06:55:45.035Z,27.30
2018-02-02T06:58:10.786Z,27.73
2018-02-02T07:00:36.546Z,28.03
2018-02-02T07:03:02.305Z,29.03
2018-02-02T07:05:28.055Z,29.37
2018-02-02T07:07:53.806Z,30.20
2018-02-02T07:10:19.554Z,31.10
2018-02-02T07:12:45.318Z,30.40
2018-02-02T07:15:11.078Z,31.27
2018-02-02T07:17:36.830Z,28.37
2018-02-02T07:20:02.579Z,29.43
2018-02-02T07:22:28.340Z,30.10
2018-02-02T07:24:54.098Z,29.97
2018-02-02T07:27:19.842Z,28.80
2018-02-02T07:29:45.586Z,30.33
2018-02-02T07:32:11.323Z,30.73
2018-02-02T07:34:37.095Z,29.97
2018-02-02T07:37:02.839Z,31.60
2018-02-02T07:39:28.598Z,30.43
2018-02-02T07:41:54.343Z,29.90
2018-02-02T07:44:20.102Z,30.27
2018-02-02T07:46:45.854Z,32.13
2018-02-02T07:49:11.618Z,31.33
2018-02-02T07:51:37.372Z,31.37
2018-02-02T07:54:03.135Z,30.90
2018-02-02T07:56:28.896Z,30.20
2018-02-02T07:58:54.650Z,30.37
2018-02-02T08:01:20.408Z,30.67
2018-02-02T08:03:46.178Z,31.67
2018-02-02T08:06:11.931Z,32.10
2018-02-02T08:08:37.682Z,31.07
2018-02-02T08:11:03.438Z,32.33
2018-02-02T08:13:29.194Z,32.10
2018-02-02T08:15:54.935Z,33.30
2018-02-02T08:18:20.683Z,31.23
2018-02-02T08:20:46.435Z,32.80
2018-02-02T08:23:12.188Z,32.90
2018-02-02T08:25:37.935Z,33.30
2018-02-02T08:28:03.682Z,32.63
2018-02-02T08:30:29.446Z,31.63
2018-02-02T08:32:55.198Z,33.13
2018-02-02T08:35:20.957Z,32.17
2018-02-02T08:37:46.690Z,32.70
2018-02-02T08:40:12.457Z,33.70
2018-02-02T08:42:38.219Z,32.37
2018-02-02T08:45:03.978Z,34.60
2018-02-02T08:47:29.730Z,34.47
2018-02-02T08:49:55.474Z,32.37
2018-02-02T08:52:21.223Z,31.97
2018-02-02T08:54:46.984Z,33.17
2018-02-02T08:57:12.739Z,32.17
2018-02-02T08:59:38.484Z,32.43
2018-02-02T09:02:06.067Z,32.70
2018-02-02T09:04:31.810Z,34.35
2018-02-02T09:06:57.567Z,33.23
2018-02-02T09:09:23.312Z,33.60
2018-02-02T09:11:49.090Z,34.03
2018-02-02T09:14:14.848Z,33.03
2018-02-02T09:16:40.607Z,35.03
2018-02-02T09:19:06.359Z,33.17
2018-02-02T09:21:32.112Z,34.00
2018-02-02T09:23:57.870Z,35.20
2018-02-02T09:26:23.638Z,35.17
2018-02-02T09:28:49.403Z,35.90
2018-02-02T09:31:15.173Z,34.27
2018-02-02T09:33:40.958Z,36.10
2018-02-02T09:36:06.733Z,33.97
2018-02-02T09:38:32.495Z,32.93
2018-02-02T09:40:58.242Z,28.80
2018-02-02T09:43:23.994Z,30.83
2018-02-02T09:45:49.755Z,32.57
2018-02-02T09:48:15.519Z,32.63
2018-02-02T09:50:41.274Z,31.20
2018-02-02T09:53:07.030Z,32.63
2018-02-02T09:55:32.791Z,31.47
2018-02-02T09:57:58.554Z,33.97
2018-02-02T10:00:24.290Z,30.37
2018-02-02T10:02:50.042Z,29.47
2018-02-02T10:05:15.786Z,29.07
2018-02-02T10:07:41.535Z,29.30
2018-02-02T10:10:07.286Z,26.70
2018-02-02T10:12:33.051Z,28.80
2018-02-02T10:14:58.818Z,30.10
2018-02-02T10:17:24.591Z,27.97
2018-02-02T10:19:50.346Z,27.57
2018-02-02T10:22:16.094Z,25.40
2018-02-02T10:24:41.859Z,26.23
2018-02-02T10:27:07.609Z,24.30
2018-02-02T10:29:33.374Z,24.83
2018-02-02T10:31:59.123Z,24.93
2018-02-02T10:34:24.895Z,24.53
2018-02-02T10:36:50.646Z,22.33
2018-02-02T10:39:16.417Z,22.30
2018-02-02T10:41:42.184Z,22.10
2018-02-02T10:44:07.955Z,19.80
2018-02-02T10:46:33.709Z,20.93
2018-02-02T10:48:59.466Z,21.87
2018-02-02T10:51:25.218Z,20.80
2018-02-02T10:53:50.966Z,20.83
2018-02-02T10:56:16.714Z,20.17
2018-02-02T10:58:42.475Z,20.67
2018-02-02T11:01:14.437Z,20.97
2018-02-02T11:03:44.079Z,17.95
2018-02-02T11:06:09.814Z,19.85
2018-02-02T11:08:35.546Z,20.83
2018-02-02T11:11:01.307Z,20.77
2018-02-02T11:13:27.067Z,18.87
2018-02-02T11:15:52.830Z,17.70
2018-02-02T11:18:18.597Z,17.90
2018-02-02T11:20:44.372Z,16.50
2018-02-02T11:23:10.122Z,17.80
2018-02-02T11:25:35.884Z,18.67
2018-02-02T11:28:01.643Z,18.57
2018-02-02T11:30:27.410Z,19.73
2018-02-02T11:32:53.158Z,18.10
2018-02-02T11:35:18.932Z,18.60
2018-02-02T11:37:44.712Z,19.50
2018-02-02T11:40:10.470Z,18.83
2018-02-02T11:42:36.248Z,15.57
2018-02-02T11:45:01.991Z,16.43
2018-02-02T11:47:27.734Z,16.57
2018-02-02T11:49:53.483Z,15.97
2018-02-02T11:52:19.213Z,16.10
2018-02-02T11:54:44.966Z,17.13
2018-02-02T11:57:10.715Z,17.03
2018-02-02T11:59:36.465Z,17.93
2018-02-02T12:02:02.207Z,18.63
2018-02-02T12:04:27.947Z,20.47
2018-02-02T12:06:53.712Z,17.27
2018-02-02T12:09:19.481Z,17.77
2018-02-02T12:11:45.255Z,17.63
2018-02-02T12:14:11.002Z,18.47
2018-02-02T12:16:36.758Z,18.07
2018-02-02T12:19:02.516Z,18.03
2018-02-02T12:21:34.500Z,18.90
2018-02-02T12:24:02.047Z,19.52
2018-02-02T12:29:47.150Z,18.75
2018-02-02T12:35:28.545Z,18.45
2018-02-02T12:37:54.309Z,18.60
2018-02-02T12:40:20.092Z,17.73
2018-02-02T12:42:45.834Z,19.37
2018-02-02T12:45:11.587Z,19.03
2018-02-02T12:47:37.331Z,19.00
2018-02-02T12:50:05.863Z,17.83
2018-02-02T12:52:31.673Z,18.62
2018-02-02T12:54:57.410Z,18.47
2018-02-02T12:57:23.174Z,19.07
2018-02-02T12:59:48.926Z,18.53
2018-02-02T13:02:14.670Z,18.53
2018-02-02T13:04:40.421Z,18.60
2018-02-02T13:07:06.166Z,17.90
2018-02-02T13:09:31.910Z,17.87
2018-02-02T13:11:57.671Z,17.63
2018-02-02T13:14:23.420Z,17.30
2018-02-02T13:16:49.166Z,17.23
2018-02-02T13:19:14.912Z,17.63
2018-02-02T13:21:40.678Z,18.10
2018-02-02T13:24:06.427Z,17.63
2018-02-02T13:26:32.179Z,16.60
2018-02-02T13:28:57.943Z,18.27
2018-02-02T13:31:23.683Z,19.07
2018-02-02T13:33:49.435Z,19.43
2018-02-02T13:36:15.174Z,18.20
2018-02-02T13:38:40.927Z,17.63
2018-02-02T13:41:06.690Z,16.77
2018-02-02T13:43:32.454Z,16.33
2018-02-02T13:45:58.190Z,17.37
2018-02-02T13:48:23.987Z,18.23
2018-02-02T13:50:49.714Z,18.40
2018-02-02T13:53:15.458Z,18.13
2018-02-02T13:55:41.202Z,18.93
2018-02-02T13:58:06.976Z,18.27
2018-02-02T14:00:32.731Z,18.73
2018-02-02T14:02:58.495Z,17.13
2018-02-02T14:05:24.232Z,17.03
2018-02-02T14:07:50.003Z,17.20
2018-02-02T14:10:15.738Z,15.13
2018-02-02T14:12:41.498Z,16.73
2018-02-02T14:15:07.270Z,16.50
2018-02-02T14:17:33.031Z,16.27
2018-02-02T14:19:58.780Z,15.90
2018-02-02T14:22:24.539Z,15.27
2018-02-02T14:24:50.298Z,15.07
2018-02-02T14:27:16.048Z,16.00
2018-02-02T14:29:41.789Z,16.60
2018-02-02T14:32:07.542Z,17.40
2018-02-02T14:34:33.323Z,15.67
2018-02-02T14:36:59.092Z,16.13
2018-02-02T14:39:24.858Z,15.67
2018-02-02T14:41:50.634Z,15.90
2018-02-02T14:44:16.452Z,15.20
2018-02-02T14:46:42.186Z,15.70
2018-02-02T14:49:07.961Z,15.33
2018-02-02T14:51:33.725Z,15.73
2018-02-02T14:53:59.491Z,15.23
2018-02-02T14:56:25.255Z,15.93
2018-02-02T14:58:51.022Z,15.67
2018-02-02T15:01:16.791Z,15.30
2018-02-02T15:03:42.959Z,15.63
2018-02-02T15:06:08.909Z,16.02
2018-02-02T15:08:34.890Z,14.83
2018-02-02T15:11:00.746Z,17.13
2018-02-02T15:13:26.552Z,17.13
2018-02-02T15:15:52.326Z,16.80
2018-02-02T15:18:18.086Z,17.33
2018-02-02T15:20:43.871Z,18.03
2018-02-02T15:23:15.623Z,18.03
2018-02-02T15:25:41.403Z,18.23
2018-02-02T15:28:07.155Z,18.43
2018-02-02T15:30:32.944Z,18.17
2018-02-02T15:32:58.711Z,18.30
2018-02-02T15:35:24.494Z,19.30
2018-02-02T15:37:50.253Z,18.70
2018-02-02T15:40:16.052Z,18.73
2018-02-02T15:42:41.801Z,18.43
2018-02-02T15:45:07.579Z,19.37
2018-02-02T15:47:33.343Z,20.67
2018-02-02T15:49:59.099Z,18.80
2018-02-02T15:52:24.876Z,19.93
2018-02-02T15:54:50.634Z,19.97
2018-02-02T15:57:16.403Z,18.73
2018-02-02T15:59:42.180Z,19.07
2018-02-02T16:02:07.945Z,22.97
2018-02-02T16:04:33.716Z,21.80
2018-02-02T16:06:59.483Z,22.50
2018-02-02T16:09:25.241Z,20.27
2018-02-02T16:11:51.011Z,17.93
2018-02-02T16:14:16.760Z,19.80
2018-02-02T16:16:42.526Z,21.23
2018-02-02T16:19:08.274Z,20.03
2018-02-02T16:21:34.027Z,21.33
2018-02-02T16:23:59.782Z,19.13
2018-02-02T16:26:25.549Z,19.47
2018-02-02T16:28:51.291Z,21.43
2018-02-02T16:31:17.047Z,21.70
2018-02-02T16:33:42.807Z,21.93
2018-02-02T16:36:08.566Z,20.37
2018-02-02T16:38:34.351Z,21.30
2018-02-02T16:41:00.149Z,21.63
2018-02-02T16:43:25.935Z,23.00
2018-02-02T16:45:51.745Z,22.53
2018-02-02T16:48:17.502Z,22.83
2018-02-02T16:50:43.258Z,24.00
2018-02-02T16:53:09.023Z,22.67
2018-02-02T16:55:34.782Z,22.30
2018-02-02T16:58:00.554Z,23.43
2018-02-02T17:00:26.347Z,24.57
2018-02-02T17:02:52.155Z,24.40
2018-02-02T17:05:17.918Z,22.60
2018-02-02T17:07:43.699Z,24.77
2018-02-02T17:10:09.459Z,25.87
2018-02-02T17:12:35.242Z,23.83
2018-02-02T17:15:00.974Z,30.10
2018-02-02T17:17:26.722Z,26.10
2018-02-02T17:19:52.489Z,25.47
2018-02-02T17:22:18.244Z,24.07
2018-02-02T17:24:44.046Z,25.37
2018-02-02T17:27:09.835Z,26.17
2018-02-02T17:29:35.595Z,26.63
2018-02-02T17:32:01.429Z,24.00
2018-02-02T17:34:27.222Z,24.27
2018-02-02T17:36:53.003Z,24.53
2018-02-02T17:39:18.772Z,25.33
2018-02-02T17:41:44.530Z,23.23
2018-02-02T17:44:10.298Z,22.87
2018-02-02T17:46:36.091Z,22.03
2018-02-02T17:49:01.888Z,22.77
2018-02-02T17:51:27.655Z,22.57
2018-02-02T17:53:53.423Z,23.20
2018-02-02T17:56:19.190Z,22.57
2018-02-02T17:58:44.975Z,22.67
2018-02-02T18:01:16.763Z,24.23
2018-02-02T18:03:42.582Z,26.52
2018-02-02T18:06:08.341Z,26.67
2018-02-02T18:08:34.200Z,26.57
2018-02-02T18:10:59.965Z,25.60
2018-02-02T18:13:25.759Z,25.07
2018-02-02T18:15:51.536Z,24.70
2018-02-02T18:18:17.344Z,23.10
2018-02-02T18:20:43.116Z,22.47
2018-02-02T18:23:08.866Z,22.83
2018-02-02T18:25:34.630Z,22.73
2018-02-02T18:28:00.383Z,22.43
2018-02-02T18:30:26.187Z,22.33
2018-02-02T18:32:51.947Z,22.30
2018-02-02T18:35:17.731Z,23.23
2018-02-02T18:37:43.481Z,21.87
2018-02-02T18:40:09.242Z,27.23
2018-02-02T18:42:34.996Z,22.67
2018-02-02T18:45:00.774Z,22.23
2018-02-02T18:47:26.527Z,21.40
2018-02-02T18:49:52.318Z,22.70
2018-02-02T18:52:18.063Z,22.07
2018-02-02T18:54:43.810Z,22.50
2018-02-02T18:57:09.566Z,20.30
2018-02-02T18:59:35.335Z,20.00
2018-02-02T19:02:01.091Z,19.20
2018-02-02T19:04:26.899Z,19.60
2018-02-02T19:06:52.654Z,19.63
2018-02-02T19:09:18.438Z,18.63
2018-02-02T19:11:44.224Z,18.83
2018-02-02T19:14:09.975Z,16.43
2018-02-02T19:16:35.742Z,18.37
2018-02-02T19:19:01.508Z,14.83
2018-02-02T19:21:27.270Z,13.80
2018-02-02T19:23:53.031Z,13.63
2018-02-02T19:26:18.811Z,12.33
2018-02-02T19:28:44.561Z,12.47
2018-02-02T19:31:10.319Z,13.60
2018-02-02T19:33:36.106Z,11.77
2018-02-02T19:36:01.864Z,12.43
2018-02-02T19:38:27.635Z,11.63
2018-02-02T19:40:53.408Z,11.23
2018-02-02T19:43:19.177Z,10.67
2018-02-02T19:45:44.951Z,11.13
2018-02-02T19:48:10.722Z,10.83
2018-02-02T19:50:36.483Z,7.97
2018-02-02T19:53:02.260Z,6.80
2018-02-02T19:55:28.050Z,4.83
2018-02-02T19:57:55.644Z,5.10
2018-02-02T20:00:21.427Z,5.80
2018-02-02T20:02:47.186Z,4.77
2018-02-02T20:05:12.970Z,5.27
2018-02-02T20:07:38.751Z,5.57
2018-02-02T20:10:04.539Z,4.73
2018-02-02T20:12:30.290Z,3.90
2018-02-02T20:14:56.054Z,4.13
2018-02-02T20:17:21.830Z,3.97
2018-02-02T20:19:47.578Z,4.30
2018-02-02T20:22:13.362Z,4.93
2018-02-02T20:24:39.122Z,4.87
2018-02-02T20:27:04.892Z,3.73
2018-02-02T20:29:30.650Z,6.60
2018-02-02T20:31:56.442Z,4.60
2018-02-02T20:34:22.198Z,5.40
2018-02-02T20:36:47.959Z,9.03
2018-02-02T20:39:13.715Z,6.87
2018-02-02T20:41:39.480Z,6.10
2018-02-02T20:44:05.224Z,5.90
2018-02-02T20:46:30.997Z,5.00
2018-02-02T20:48:56.755Z,4.97
2018-02-02T20:51:22.531Z,6.37
2018-02-02T20:53:48.332Z,6.73
2018-02-02T20:56:14.102Z,5.47
2018-02-02T20:58:39.872Z,5.47
2018-02-02T21:01:05.636Z,4.83
2018-02-02T21:03:31.394Z,5.30
2018-02-02T21:05:57.147Z,5.37
2018-02-02T21:08:22.906Z,6.67
2018-02-02T21:10:48.666Z,7.60
2018-02-02T21:13:14.457Z,7.10
2018-02-02T21:15:40.204Z,8.10
2018-02-02T21:18:05.983Z,16.50
2018-02-02T21:20:31.733Z,7.47
2018-02-02T21:22:57.521Z,11.30
2018-02-02T21:25:23.286Z,7.47
2018-02-02T21:27:49.068Z,10.00
2018-02-02T21:30:14.850Z,9.23
2018-02-02T21:32:40.618Z,7.27
2018-02-02T21:35:06.385Z,7.27
2018-02-02T21:37:32.154Z,6.03
2018-02-02T21:39:57.911Z,6.90
2018-02-02T21:42:23.683Z,6.83
2018-02-02T21:44:49.427Z,5.30
2018-02-02T21:47:15.198Z,7.67
2018-02-02T21:49:40.967Z,6.70
2018-02-02T21:52:06.723Z,6.60
2018-02-02T21:54:32.465Z,6.00
2018-02-02T21:56:58.222Z,6.37
2018-02-02T21:59:23.985Z,6.83
2018-02-02T22:01:49.751Z,6.97
2018-02-02T22:04:15.512Z,8.10
2018-02-02T22:06:41.263Z,7.43
2018-02-02T22:09:07.046Z,7.13
2018-02-02T22:11:32.795Z,7.33
2018-02-02T22:13:58.558Z,6.47
2018-02-02T22:16:24.316Z,7.03
2018-02-02T22:18:50.086Z,7.47
2018-02-02T22:21:15.830Z,7.13
2018-02-02T22:23:41.597Z,6.93
2018-02-02T22:26:07.363Z,7.13
2018-02-02T22:28:33.122Z,7.30
2018-02-02T22:30:58.899Z,6.87
2018-02-02T22:33:24.665Z,6.33
2018-02-02T22:35:50.430Z,7.67
2018-02-02T22:38:16.182Z,8.23
2018-02-02T22:40:41.979Z,6.20
2018-02-02T22:43:07.730Z,6.70
2018-02-02T22:45:33.502Z,6.97
2018-02-02T22:47:59.321Z,7.67
2018-02-02T22:50:25.094Z,7.83
2018-02-02T22:52:50.862Z,7.87
2018-02-02T22:55:16.683Z,7.73
2018-02-02T22:57:42.457Z,7.43
2018-02-02T23:00:08.267Z,7.80
2018-02-02T23:02:34.299Z,7.40
2018-02-02T23:05:00.091Z,7.03
2018-02-02T23:07:25.868Z,6.97
2018-02-02T23:09:51.619Z,7.20
2018-02-02T23:12:17.400Z,6.47
2018-02-02T23:14:43.394Z,7.17
2018-02-02T23:17:09.202Z,5.47
2018-02-02T23:19:34.979Z,5.90
2018-02-02T23:22:00.744Z,6.83
2018-02-02T23:24:26.507Z,7.10
2018-02-02T23:26:52.281Z,7.33
2018-02-02T23:29:18.040Z,7.80
2018-02-02T23:31:43.926Z,6.97
2018-02-02T23:34:09.711Z,7.23
2018-02-02T23:36:35.484Z,7.33
2018-02-02T23:39:02.057Z,7.57
2018-02-02T23:41:27.858Z,6.90
2018-02-02T23:43:53.610Z,6.77
2018-02-02T23:46:19.370Z,7.47
2018-02-02T23:48:45.139Z,7.03
2018-02-02T23:51:10.919Z,7.00
2018-02-02T23:53:36.855Z,6.73
2018-02-02T23:56:02.668Z,5.72
2018-02-02T23:58:28.445Z,5.47
